sensor_id;sensor_type;location;lat;lon;timestamp;P1;durP1;ratioP1;P2;durP2;ratioP2
12871;SDS011;6504;53.766;9.626;2023-12-22T00:01:36;15.50;;;4.63;;
12871;SDS011;6504;53.766;9.626;2023-12-22T00:04:04;15.37;;;4.30;;
12871;SDS011;6504;53.766;9.626;2023-12-22T00:06:33;20.43;;;5.03;;
12871;SDS011;6504;53.766;9.626;2023-12-22T00:09:01;17.40;;;4.40;;
12871;SDS011;6504;53.766;9.626;2023-12-22T00:11:29;15.53;;;3.93;;
12871;SDS011;6504;53.766;9.626;2023-12-22T00:13:57;18.63;;;5.07;;
12871;SDS011;6504;53.766;9.626;2023-12-22T00:16:27;18.53;;;4.93;;
12871;SDS011;6504;53.766;9.626;2023-12-22T00:18:55;12.50;;;4.40;;
12871;SDS011;6504;53.766;9.626;2023-12-22T00:21:24;18.47;;;4.30;;
12871;SDS011;6504;53.766;9.626;2023-12-22T00:23:54;12.73;;;3.97;;
12871;SDS011;6504;53.766;9.626;2023-12-22T00:26:22;10.83;;;3.60;;
12871;SDS011;6504;53.766;9.626;2023-12-22T00:28:50;10.57;;;3.43;;
12871;SDS011;6504;53.766;9.626;2023-12-22T00:31:18;17.33;;;4.13;;
12871;SDS011;6504;53.766;9.626;2023-12-22T00:33:48;12.93;;;3.30;;
12871;SDS011;6504;53.766;9.626;2023-12-22T00:36:16;11.63;;;3.30;;
12871;SDS011;6504;53.766;9.626;2023-12-22T00:38:44;16.33;;;4.40;;
12871;SDS011;6504;53.766;9.626;2023-12-22T00:41:12;13.93;;;4.57;;
12871;SDS011;6504;53.766;9.626;2023-12-22T00:43:40;17.73;;;4.17;;
12871;SDS011;6504;53.766;9.626;2023-12-22T00:46:09;24.63;;;7.47;;
12871;SDS011;6504;53.766;9.626;2023-12-22T00:48:37;23.87;;;5.70;;
12871;SDS011;6504;53.766;9.626;2023-12-22T00:51:06;28.33;;;6.60;;
12871;SDS011;6504;53.766;9.626;2023-12-22T00:53:34;25.33;;;5.77;;
12871;SDS011;6504;53.766;9.626;2023-12-22T00:56:02;25.67;;;5.90;;
12871;SDS011;6504;53.766;9.626;2023-12-22T00:58:31;19.73;;;4.97;;
12871;SDS011;6504;53.766;9.626;2023-12-22T01:00:59;18.67;;;4.67;;
12871;SDS011;6504;53.766;9.626;2023-12-22T01:03:28;13.57;;;3.47;;
12871;SDS011;6504;53.766;9.626;2023-12-22T01:05:56;14.50;;;3.60;;
12871;SDS011;6504;53.766;9.626;2023-12-22T01:08:25;15.80;;;3.60;;
12871;SDS011;6504;53.766;9.626;2023-12-22T01:10:53;12.77;;;3.33;;
12871;SDS011;6504;53.766;9.626;2023-12-22T01:13:21;13.87;;;3.80;;
12871;SDS011;6504;53.766;9.626;2023-12-22T01:15:49;9.87;;;2.80;;
12871;SDS011;6504;53.766;9.626;2023-12-22T01:18:17;8.93;;;2.83;;
12871;SDS011;6504;53.766;9.626;2023-12-22T01:20:46;9.27;;;2.30;;
12871;SDS011;6504;53.766;9.626;2023-12-22T01:23:15;8.37;;;2.63;;
12871;SDS011;6504;53.766;9.626;2023-12-22T01:25:45;6.60;;;1.83;;
12871;SDS011;6504;53.766;9.626;2023-12-22T01:28:13;4.70;;;1.73;;
12871;SDS011;6504;53.766;9.626;2023-12-22T01:30:41;7.20;;;1.97;;
12871;SDS011;6504;53.766;9.626;2023-12-22T01:33:09;4.77;;;1.73;;
12871;SDS011;6504;53.766;9.626;2023-12-22T01:35:37;5.37;;;1.63;;
12871;SDS011;6504;53.766;9.626;2023-12-22T01:38:05;6.00;;;2.00;;
12871;SDS011;6504;53.766;9.626;2023-12-22T01:40:33;5.73;;;1.90;;
12871;SDS011;6504;53.766;9.626;2023-12-22T01:43:03;6.77;;;2.00;;
12871;SDS011;6504;53.766;9.626;2023-12-22T01:45:31;5.83;;;1.70;;
12871;SDS011;6504;53.766;9.626;2023-12-22T01:47:59;8.37;;;2.00;;
12871;SDS011;6504;53.766;9.626;2023-12-22T01:50:28;6.50;;;2.23;;
12871;SDS011;6504;53.766;9.626;2023-12-22T01:52:56;6.53;;;2.17;;
12871;SDS011;6504;53.766;9.626;2023-12-22T01:55:24;7.03;;;2.13;;
12871;SDS011;6504;53.766;9.626;2023-12-22T01:57:52;7.97;;;1.90;;
12871;SDS011;6504;53.766;9.626;2023-12-22T02:00:22;4.27;;;1.80;;
12871;SDS011;6504;53.766;9.626;2023-12-22T02:02:50;8.93;;;2.20;;
12871;SDS011;6504;53.766;9.626;2023-12-22T02:05:19;5.90;;;1.97;;
12871;SDS011;6504;53.766;9.626;2023-12-22T02:07:47;6.20;;;2.33;;
12871;SDS011;6504;53.766;9.626;2023-12-22T02:10:16;8.53;;;2.10;;
12871;SDS011;6504;53.766;9.626;2023-12-22T02:12:44;10.43;;;1.97;;
12871;SDS011;6504;53.766;9.626;2023-12-22T02:15:13;9.63;;;2.67;;
12871;SDS011;6504;53.766;9.626;2023-12-22T02:17:46;11.03;;;2.20;;
12871;SDS011;6504;53.766;9.626;2023-12-22T02:20:17;11.20;;;2.30;;
12871;SDS011;6504;53.766;9.626;2023-12-22T02:22:51;7.60;;;2.70;;
12871;SDS011;6504;53.766;9.626;2023-12-22T02:25:20;12.47;;;3.70;;
12871;SDS011;6504;53.766;9.626;2023-12-22T02:27:48;11.97;;;3.00;;
12871;SDS011;6504;53.766;9.626;2023-12-22T02:30:19;19.50;;;4.53;;
12871;SDS011;6504;53.766;9.626;2023-12-22T02:32:59;12.70;;;3.30;;
12871;SDS011;6504;53.766;9.626;2023-12-22T02:35:32;9.93;;;3.37;;
12871;SDS011;6504;53.766;9.626;2023-12-22T02:38:04;12.93;;;3.03;;
12871;SDS011;6504;53.766;9.626;2023-12-22T02:40:34;9.47;;;2.57;;
12871;SDS011;6504;53.766;9.626;2023-12-22T02:43:03;6.53;;;1.90;;
12871;SDS011;6504;53.766;9.626;2023-12-22T02:45:32;5.90;;;1.90;;
12871;SDS011;6504;53.766;9.626;2023-12-22T02:48:00;6.20;;;1.80;;
12871;SDS011;6504;53.766;9.626;2023-12-22T02:50:29;3.83;;;1.37;;
12871;SDS011;6504;53.766;9.626;2023-12-22T02:52:57;6.03;;;1.40;;
12871;SDS011;6504;53.766;9.626;2023-12-22T02:55:26;5.60;;;1.53;;
12871;SDS011;6504;53.766;9.626;2023-12-22T02:57:54;4.27;;;1.40;;
12871;SDS011;6504;53.766;9.626;2023-12-22T03:00:22;2.80;;;1.40;;
12871;SDS011;6504;53.766;9.626;2023-12-22T03:02:50;5.07;;;1.30;;
12871;SDS011;6504;53.766;9.626;2023-12-22T03:05:18;9.47;;;1.60;;
12871;SDS011;6504;53.766;9.626;2023-12-22T03:07:47;2.10;;;1.20;;
12871;SDS011;6504;53.766;9.626;2023-12-22T03:10:15;2.73;;;1.30;;
12871;SDS011;6504;53.766;9.626;2023-12-22T03:12:45;4.70;;;1.30;;
12871;SDS011;6504;53.766;9.626;2023-12-22T03:15:13;7.40;;;1.50;;
12871;SDS011;6504;53.766;9.626;2023-12-22T03:17:41;6.27;;;1.57;;
12871;SDS011;6504;53.766;9.626;2023-12-22T03:20:09;3.90;;;1.20;;
12871;SDS011;6504;53.766;9.626;2023-12-22T03:22:38;7.40;;;1.57;;
12871;SDS011;6504;53.766;9.626;2023-12-22T03:25:06;6.20;;;1.80;;
12871;SDS011;6504;53.766;9.626;2023-12-22T03:27:34;4.67;;;1.43;;
12871;SDS011;6504;53.766;9.626;2023-12-22T03:30:04;8.13;;;1.70;;
12871;SDS011;6504;53.766;9.626;2023-12-22T03:32:33;8.20;;;1.93;;
12871;SDS011;6504;53.766;9.626;2023-12-22T03:35:01;10.03;;;2.30;;
12871;SDS011;6504;53.766;9.626;2023-12-22T03:37:30;7.90;;;1.90;;
12871;SDS011;6504;53.766;9.626;2023-12-22T03:39:58;10.20;;;2.53;;
12871;SDS011;6504;53.766;9.626;2023-12-22T03:42:26;9.90;;;2.40;;
12871;SDS011;6504;53.766;9.626;2023-12-22T03:44:54;9.67;;;2.53;;
12871;SDS011;6504;53.766;9.626;2023-12-22T03:47:23;8.97;;;3.03;;
12871;SDS011;6504;53.766;9.626;2023-12-22T03:49:51;10.40;;;2.20;;
12871;SDS011;6504;53.766;9.626;2023-12-22T03:52:20;8.33;;;2.63;;
12871;SDS011;6504;53.766;9.626;2023-12-22T03:54:48;11.03;;;2.53;;
12871;SDS011;6504;53.766;9.626;2023-12-22T03:57:16;13.70;;;3.30;;
12871;SDS011;6504;53.766;9.626;2023-12-22T03:59:44;16.37;;;3.73;;
12871;SDS011;6504;53.766;9.626;2023-12-22T04:02:12;13.07;;;3.03;;
12871;SDS011;6504;53.766;9.626;2023-12-22T04:04:42;12.17;;;3.27;;
12871;SDS011;6504;53.766;9.626;2023-12-22T04:07:10;8.20;;;2.77;;
12871;SDS011;6504;53.766;9.626;2023-12-22T04:09:38;16.13;;;3.37;;
12871;SDS011;6504;53.766;9.626;2023-12-22T04:12:06;9.83;;;2.70;;
12871;SDS011;6504;53.766;9.626;2023-12-22T04:14:35;10.90;;;2.87;;
12871;SDS011;6504;53.766;9.626;2023-12-22T04:17:03;10.57;;;3.00;;
12871;SDS011;6504;53.766;9.626;2023-12-22T04:19:31;7.77;;;2.47;;
12871;SDS011;6504;53.766;9.626;2023-12-22T04:22:01;9.33;;;3.70;;
12871;SDS011;6504;53.766;9.626;2023-12-22T04:24:29;9.67;;;2.40;;
12871;SDS011;6504;53.766;9.626;2023-12-22T04:26:57;10.23;;;2.67;;
12871;SDS011;6504;53.766;9.626;2023-12-22T04:29:25;10.77;;;2.70;;
12871;SDS011;6504;53.766;9.626;2023-12-22T04:31:53;8.43;;;2.50;;
12871;SDS011;6504;53.766;9.626;2023-12-22T04:34:21;10.27;;;2.00;;
12871;SDS011;6504;53.766;9.626;2023-12-22T04:36:49;9.00;;;2.60;;
12871;SDS011;6504;53.766;9.626;2023-12-22T04:39:19;8.47;;;2.67;;
12871;SDS011;6504;53.766;9.626;2023-12-22T04:41:49;12.07;;;2.83;;
12871;SDS011;6504;53.766;9.626;2023-12-22T04:44:17;10.47;;;2.60;;
12871;SDS011;6504;53.766;9.626;2023-12-22T04:46:45;12.10;;;2.93;;
12871;SDS011;6504;53.766;9.626;2023-12-22T04:49:13;11.73;;;3.30;;
12871;SDS011;6504;53.766;9.626;2023-12-22T04:51:42;14.97;;;3.10;;
12871;SDS011;6504;53.766;9.626;2023-12-22T04:54:10;10.93;;;3.30;;
12871;SDS011;6504;53.766;9.626;2023-12-22T04:56:39;11.47;;;2.53;;
12871;SDS011;6504;53.766;9.626;2023-12-22T04:59:07;8.10;;;2.90;;
12871;SDS011;6504;53.766;9.626;2023-12-22T05:01:35;10.53;;;2.70;;
12871;SDS011;6504;53.766;9.626;2023-12-22T05:04:03;8.20;;;2.20;;
12871;SDS011;6504;53.766;9.626;2023-12-22T05:06:35;11.00;;;2.30;;
12871;SDS011;6504;53.766;9.626;2023-12-22T05:09:03;11.40;;;2.60;;
12871;SDS011;6504;53.766;9.626;2023-12-22T05:11:31;13.97;;;3.07;;
12871;SDS011;6504;53.766;9.626;2023-12-22T05:14:01;8.53;;;2.43;;
12871;SDS011;6504;53.766;9.626;2023-12-22T05:16:29;12.90;;;2.60;;
12871;SDS011;6504;53.766;9.626;2023-12-22T05:18:58;12.33;;;2.70;;
12871;SDS011;6504;53.766;9.626;2023-12-22T05:21:26;8.30;;;2.73;;
12871;SDS011;6504;53.766;9.626;2023-12-22T05:23:54;16.33;;;3.40;;
12871;SDS011;6504;53.766;9.626;2023-12-22T05:26:22;13.77;;;3.17;;
12871;SDS011;6504;53.766;9.626;2023-12-22T05:28:50;10.33;;;2.50;;
12871;SDS011;6504;53.766;9.626;2023-12-22T05:31:20;9.50;;;2.33;;
12871;SDS011;6504;53.766;9.626;2023-12-22T05:33:48;6.57;;;2.00;;
12871;SDS011;6504;53.766;9.626;2023-12-22T05:36:16;5.03;;;1.73;;
12871;SDS011;6504;53.766;9.626;2023-12-22T05:38:45;4.27;;;2.30;;
12871;SDS011;6504;53.766;9.626;2023-12-22T05:41:14;8.00;;;1.70;;
12871;SDS011;6504;53.766;9.626;2023-12-22T05:43:42;8.37;;;1.67;;
12871;SDS011;6504;53.766;9.626;2023-12-22T05:46:10;6.37;;;1.60;;
12871;SDS011;6504;53.766;9.626;2023-12-22T05:48:39;6.83;;;2.10;;
12871;SDS011;6504;53.766;9.626;2023-12-22T05:51:07;4.80;;;1.80;;
12871;SDS011;6504;53.766;9.626;2023-12-22T05:53:39;7.70;;;1.83;;
12871;SDS011;6504;53.766;9.626;2023-12-22T05:56:16;7.47;;;2.17;;
12871;SDS011;6504;53.766;9.626;2023-12-22T05:58:45;7.73;;;2.57;;
12871;SDS011;6504;53.766;9.626;2023-12-22T06:01:14;5.00;;;2.03;;
12871;SDS011;6504;53.766;9.626;2023-12-22T06:03:44;11.53;;;3.00;;
12871;SDS011;6504;53.766;9.626;2023-12-22T06:06:13;10.43;;;2.87;;
12871;SDS011;6504;53.766;9.626;2023-12-22T06:08:41;16.33;;;3.50;;
12871;SDS011;6504;53.766;9.626;2023-12-22T06:11:09;13.07;;;3.17;;
12871;SDS011;6504;53.766;9.626;2023-12-22T06:13:37;12.63;;;3.50;;
12871;SDS011;6504;53.766;9.626;2023-12-22T06:16:05;14.37;;;3.77;;
12871;SDS011;6504;53.766;9.626;2023-12-22T06:18:33;10.00;;;2.80;;
12871;SDS011;6504;53.766;9.626;2023-12-22T06:21:03;12.00;;;2.90;;
12871;SDS011;6504;53.766;9.626;2023-12-22T06:23:31;13.73;;;3.47;;
12871;SDS011;6504;53.766;9.626;2023-12-22T06:25:59;11.50;;;3.17;;
12871;SDS011;6504;53.766;9.626;2023-12-22T06:28:28;14.43;;;3.83;;
12871;SDS011;6504;53.766;9.626;2023-12-22T06:30:56;13.43;;;3.30;;
12871;SDS011;6504;53.766;9.626;2023-12-22T06:33:24;12.57;;;3.27;;
12871;SDS011;6504;53.766;9.626;2023-12-22T06:35:53;12.30;;;4.37;;
12871;SDS011;6504;53.766;9.626;2023-12-22T06:38:22;13.37;;;4.00;;
12871;SDS011;6504;53.766;9.626;2023-12-22T06:40:50;20.77;;;3.63;;
12871;SDS011;6504;53.766;9.626;2023-12-22T06:43:18;19.47;;;5.13;;
12871;SDS011;6504;53.766;9.626;2023-12-22T06:45:46;19.73;;;4.63;;
12871;SDS011;6504;53.766;9.626;2023-12-22T06:48:14;15.47;;;4.27;;
12871;SDS011;6504;53.766;9.626;2023-12-22T06:50:42;18.33;;;4.27;;
12871;SDS011;6504;53.766;9.626;2023-12-22T06:53:12;17.57;;;5.10;;
12871;SDS011;6504;53.766;9.626;2023-12-22T06:55:52;17.70;;;4.10;;
12871;SDS011;6504;53.766;9.626;2023-12-22T06:58:20;21.63;;;4.70;;
12871;SDS011;6504;53.766;9.626;2023-12-22T07:00:52;14.13;;;4.23;;
12871;SDS011;6504;53.766;9.626;2023-12-22T07:03:20;17.93;;;4.77;;
12871;SDS011;6504;53.766;9.626;2023-12-22T07:05:48;18.77;;;4.30;;
12871;SDS011;6504;53.766;9.626;2023-12-22T07:08:17;17.23;;;4.10;;
12871;SDS011;6504;53.766;9.626;2023-12-22T07:10:45;18.93;;;4.23;;
12871;SDS011;6504;53.766;9.626;2023-12-22T07:13:14;17.77;;;5.20;;
12871;SDS011;6504;53.766;9.626;2023-12-22T07:15:44;14.60;;;4.60;;
12871;SDS011;6504;53.766;9.626;2023-12-22T07:18:12;18.10;;;5.93;;
12871;SDS011;6504;53.766;9.626;2023-12-22T07:20:40;17.87;;;5.20;;
12871;SDS011;6504;53.766;9.626;2023-12-22T07:23:09;19.97;;;6.10;;
12871;SDS011;6504;53.766;9.626;2023-12-22T07:25:39;21.37;;;5.60;;
12871;SDS011;6504;53.766;9.626;2023-12-22T07:28:07;16.33;;;7.60;;
12871;SDS011;6504;53.766;9.626;2023-12-22T07:30:36;17.57;;;7.37;;
12871;SDS011;6504;53.766;9.626;2023-12-22T07:33:04;12.93;;;6.97;;
12871;SDS011;6504;53.766;9.626;2023-12-22T07:35:32;15.27;;;4.83;;
12871;SDS011;6504;53.766;9.626;2023-12-22T07:38:01;15.03;;;3.97;;
12871;SDS011;6504;53.766;9.626;2023-12-22T07:40:30;12.70;;;3.73;;
12871;SDS011;6504;53.766;9.626;2023-12-22T07:42:58;10.80;;;4.37;;
12871;SDS011;6504;53.766;9.626;2023-12-22T07:45:27;19.33;;;5.33;;
12871;SDS011;6504;53.766;9.626;2023-12-22T07:47:57;12.40;;;3.83;;
12871;SDS011;6504;53.766;9.626;2023-12-22T07:50:26;12.37;;;4.00;;
12871;SDS011;6504;53.766;9.626;2023-12-22T07:52:55;11.40;;;4.13;;
12871;SDS011;6504;53.766;9.626;2023-12-22T07:55:28;9.03;;;3.93;;
12871;SDS011;6504;53.766;9.626;2023-12-22T07:57:56;8.70;;;2.97;;
12871;SDS011;6504;53.766;9.626;2023-12-22T08:00:24;11.57;;;3.50;;
12871;SDS011;6504;53.766;9.626;2023-12-22T08:02:52;16.43;;;7.47;;
12871;SDS011;6504;53.766;9.626;2023-12-22T08:05:21;10.63;;;3.80;;
12871;SDS011;6504;53.766;9.626;2023-12-22T08:07:49;14.73;;;6.60;;
12871;SDS011;6504;53.766;9.626;2023-12-22T08:10:18;10.43;;;4.03;;
12871;SDS011;6504;53.766;9.626;2023-12-22T08:12:46;18.17;;;7.67;;
12871;SDS011;6504;53.766;9.626;2023-12-22T08:15:14;23.67;;;12.13;;
12871;SDS011;6504;53.766;9.626;2023-12-22T08:17:54;18.47;;;7.43;;
12871;SDS011;6504;53.766;9.626;2023-12-22T08:20:24;19.77;;;5.07;;
12871;SDS011;6504;53.766;9.626;2023-12-22T08:22:58;16.07;;;5.10;;
12871;SDS011;6504;53.766;9.626;2023-12-22T08:25:32;18.83;;;7.00;;
12871;SDS011;6504;53.766;9.626;2023-12-22T08:28:01;18.03;;;4.87;;
12871;SDS011;6504;53.766;9.626;2023-12-22T08:30:29;13.27;;;4.80;;
12871;SDS011;6504;53.766;9.626;2023-12-22T08:32:57;13.73;;;3.47;;
12871;SDS011;6504;53.766;9.626;2023-12-22T08:35:26;17.70;;;4.17;;
12871;SDS011;6504;53.766;9.626;2023-12-22T08:37:54;13.20;;;3.33;;
12871;SDS011;6504;53.766;9.626;2023-12-22T08:40:24;9.20;;;3.00;;
12871;SDS011;6504;53.766;9.626;2023-12-22T08:42:54;8.30;;;2.50;;
12871;SDS011;6504;53.766;9.626;2023-12-22T08:45:26;5.53;;;2.30;;
12871;SDS011;6504;53.766;9.626;2023-12-22T08:47:55;11.30;;;3.17;;
12871;SDS011;6504;53.766;9.626;2023-12-22T08:50:24;9.30;;;2.43;;
12871;SDS011;6504;53.766;9.626;2023-12-22T08:52:54;10.10;;;2.77;;
12871;SDS011;6504;53.766;9.626;2023-12-22T08:55:22;11.80;;;3.30;;
12871;SDS011;6504;53.766;9.626;2023-12-22T08:57:50;10.80;;;3.13;;
12871;SDS011;6504;53.766;9.626;2023-12-22T09:00:28;9.97;;;4.30;;
12871;SDS011;6504;53.766;9.626;2023-12-22T09:02:57;9.13;;;4.20;;
12871;SDS011;6504;53.766;9.626;2023-12-22T09:05:25;10.53;;;3.70;;
12871;SDS011;6504;53.766;9.626;2023-12-22T09:07:55;9.40;;;3.27;;
12871;SDS011;6504;53.766;9.626;2023-12-22T09:10:23;10.00;;;3.97;;
12871;SDS011;6504;53.766;9.626;2023-12-22T09:12:52;8.53;;;2.73;;
12871;SDS011;6504;53.766;9.626;2023-12-22T09:15:20;8.80;;;3.10;;
12871;SDS011;6504;53.766;9.626;2023-12-22T09:17:49;11.93;;;3.40;;
12871;SDS011;6504;53.766;9.626;2023-12-22T09:20:18;11.70;;;2.80;;
12871;SDS011;6504;53.766;9.626;2023-12-22T09:22:47;10.10;;;3.00;;
12871;SDS011;6504;53.766;9.626;2023-12-22T09:25:16;11.97;;;2.80;;
12871;SDS011;6504;53.766;9.626;2023-12-22T09:27:45;14.73;;;2.97;;
12871;SDS011;6504;53.766;9.626;2023-12-22T09:30:14;12.87;;;2.67;;
12871;SDS011;6504;53.766;9.626;2023-12-22T09:32:42;14.13;;;3.10;;
12871;SDS011;6504;53.766;9.626;2023-12-22T09:35:10;10.77;;;3.00;;
12871;SDS011;6504;53.766;9.626;2023-12-22T09:37:38;12.77;;;3.30;;
12871;SDS011;6504;53.766;9.626;2023-12-22T09:40:07;13.07;;;3.70;;
12871;SDS011;6504;53.766;9.626;2023-12-22T09:42:38;14.30;;;3.63;;
12871;SDS011;6504;53.766;9.626;2023-12-22T09:45:10;9.93;;;3.27;;
12871;SDS011;6504;53.766;9.626;2023-12-22T09:47:39;9.33;;;2.97;;
12871;SDS011;6504;53.766;9.626;2023-12-22T09:50:08;13.77;;;3.63;;
12871;SDS011;6504;53.766;9.626;2023-12-22T09:52:37;12.47;;;4.40;;
12871;SDS011;6504;53.766;9.626;2023-12-22T09:55:07;9.80;;;3.73;;
12871;SDS011;6504;53.766;9.626;2023-12-22T09:57:36;21.00;;;5.00;;
12871;SDS011;6504;53.766;9.626;2023-12-22T10:00:08;12.70;;;3.60;;
12871;SDS011;6504;53.766;9.626;2023-12-22T10:02:39;16.53;;;3.53;;
12871;SDS011;6504;53.766;9.626;2023-12-22T10:05:08;12.77;;;3.23;;
12871;SDS011;6504;53.766;9.626;2023-12-22T10:07:36;13.70;;;3.60;;
12871;SDS011;6504;53.766;9.626;2023-12-22T10:10:05;14.40;;;3.43;;
12871;SDS011;6504;53.766;9.626;2023-12-22T10:12:36;13.80;;;4.30;;
12871;SDS011;6504;53.766;9.626;2023-12-22T10:15:08;14.27;;;3.63;;
12871;SDS011;6504;53.766;9.626;2023-12-22T10:17:38;11.10;;;3.47;;
12871;SDS011;6504;53.766;9.626;2023-12-22T10:20:08;15.77;;;4.20;;
12871;SDS011;6504;53.766;9.626;2023-12-22T10:22:36;12.57;;;3.70;;
12871;SDS011;6504;53.766;9.626;2023-12-22T10:25:05;12.83;;;3.90;;
12871;SDS011;6504;53.766;9.626;2023-12-22T10:27:36;12.80;;;3.37;;
12871;SDS011;6504;53.766;9.626;2023-12-22T10:30:07;13.43;;;4.70;;
12871;SDS011;6504;53.766;9.626;2023-12-22T10:32:39;16.37;;;3.43;;
12871;SDS011;6504;53.766;9.626;2023-12-22T10:35:08;15.03;;;3.60;;
12871;SDS011;6504;53.766;9.626;2023-12-22T10:37:36;11.73;;;2.83;;
12871;SDS011;6504;53.766;9.626;2023-12-22T10:40:06;14.37;;;2.83;;
12871;SDS011;6504;53.766;9.626;2023-12-22T10:42:37;10.83;;;3.17;;
12871;SDS011;6504;53.766;9.626;2023-12-22T10:45:08;11.70;;;2.80;;
12871;SDS011;6504;53.766;9.626;2023-12-22T10:47:37;11.57;;;3.00;;
12871;SDS011;6504;53.766;9.626;2023-12-22T10:50:06;11.67;;;3.00;;
12871;SDS011;6504;53.766;9.626;2023-12-22T10:52:35;15.87;;;2.90;;
12871;SDS011;6504;53.766;9.626;2023-12-22T10:55:03;9.10;;;3.00;;
12871;SDS011;6504;53.766;9.626;2023-12-22T10:57:32;18.73;;;4.43;;
12871;SDS011;6504;53.766;9.626;2023-12-22T11:00:05;12.73;;;3.00;;
12871;SDS011;6504;53.766;9.626;2023-12-22T11:02:36;12.47;;;3.13;;
12871;SDS011;6504;53.766;9.626;2023-12-22T11:05:10;10.23;;;3.60;;
12871;SDS011;6504;53.766;9.626;2023-12-22T11:07:39;17.30;;;3.40;;
12871;SDS011;6504;53.766;9.626;2023-12-22T11:10:17;13.67;;;3.80;;
12871;SDS011;6504;53.766;9.626;2023-12-22T11:12:48;9.50;;;3.00;;
12871;SDS011;6504;53.766;9.626;2023-12-22T11:15:18;13.73;;;3.33;;
12871;SDS011;6504;53.766;9.626;2023-12-22T11:17:48;13.57;;;3.40;;
12871;SDS011;6504;53.766;9.626;2023-12-22T11:20:18;15.77;;;3.33;;
12871;SDS011;6504;53.766;9.626;2023-12-22T11:22:47;19.80;;;3.60;;
12871;SDS011;6504;53.766;9.626;2023-12-22T11:25:17;15.83;;;3.30;;
12871;SDS011;6504;53.766;9.626;2023-12-22T11:27:47;17.03;;;3.70;;
12871;SDS011;6504;53.766;9.626;2023-12-22T11:30:20;15.97;;;3.33;;
12871;SDS011;6504;53.766;9.626;2023-12-22T11:32:49;11.60;;;3.20;;
12871;SDS011;6504;53.766;9.626;2023-12-22T11:35:21;14.50;;;3.83;;
12871;SDS011;6504;53.766;9.626;2023-12-22T11:37:58;11.20;;;3.33;;
12871;SDS011;6504;53.766;9.626;2023-12-22T11:40:30;12.90;;;3.33;;
12871;SDS011;6504;53.766;9.626;2023-12-22T11:42:58;13.53;;;3.20;;
12871;SDS011;6504;53.766;9.626;2023-12-22T11:45:31;12.20;;;3.20;;
12871;SDS011;6504;53.766;9.626;2023-12-22T11:48:04;12.53;;;4.00;;
12871;SDS011;6504;53.766;9.626;2023-12-22T11:50:34;11.07;;;3.20;;
12871;SDS011;6504;53.766;9.626;2023-12-22T11:53:18;10.70;;;3.30;;
12871;SDS011;6504;53.766;9.626;2023-12-22T11:55:56;9.73;;;2.87;;
12871;SDS011;6504;53.766;9.626;2023-12-22T11:58:37;12.43;;;3.23;;
12871;SDS011;6504;53.766;9.626;2023-12-22T12:01:08;8.80;;;2.80;;
12871;SDS011;6504;53.766;9.626;2023-12-22T12:03:38;8.37;;;2.50;;
12871;SDS011;6504;53.766;9.626;2023-12-22T12:06:16;14.57;;;2.97;;
12871;SDS011;6504;53.766;9.626;2023-12-22T12:08:49;11.57;;;2.70;;
12871;SDS011;6504;53.766;9.626;2023-12-22T12:11:18;14.77;;;4.53;;
12871;SDS011;6504;53.766;9.626;2023-12-22T12:13:46;11.97;;;2.70;;
12871;SDS011;6504;53.766;9.626;2023-12-22T12:16:18;10.90;;;3.20;;
12871;SDS011;6504;53.766;9.626;2023-12-22T12:18:47;9.00;;;2.93;;
12871;SDS011;6504;53.766;9.626;2023-12-22T12:21:19;14.10;;;3.53;;
12871;SDS011;6504;53.766;9.626;2023-12-22T12:23:47;10.77;;;3.73;;
12871;SDS011;6504;53.766;9.626;2023-12-22T12:26:16;13.13;;;3.33;;
12871;SDS011;6504;53.766;9.626;2023-12-22T12:28:45;15.20;;;3.20;;
12871;SDS011;6504;53.766;9.626;2023-12-22T12:31:14;12.10;;;3.37;;
12871;SDS011;6504;53.766;9.626;2023-12-22T12:33:43;16.73;;;3.13;;
12871;SDS011;6504;53.766;9.626;2023-12-22T12:36:13;10.60;;;2.87;;
12871;SDS011;6504;53.766;9.626;2023-12-22T12:38:45;12.93;;;3.00;;
12871;SDS011;6504;53.766;9.626;2023-12-22T12:41:22;11.07;;;3.83;;
12871;SDS011;6504;53.766;9.626;2023-12-22T12:43:56;14.53;;;4.17;;
12871;SDS011;6504;53.766;9.626;2023-12-22T12:46:31;12.00;;;2.73;;
12871;SDS011;6504;53.766;9.626;2023-12-22T12:49:05;8.50;;;2.37;;
12871;SDS011;6504;53.766;9.626;2023-12-22T12:51:37;10.33;;;3.03;;
12871;SDS011;6504;53.766;9.626;2023-12-22T12:54:06;14.60;;;3.10;;
12871;SDS011;6504;53.766;9.626;2023-12-22T12:56:38;11.00;;;2.83;;
12871;SDS011;6504;53.766;9.626;2023-12-22T12:59:07;14.93;;;3.10;;
12871;SDS011;6504;53.766;9.626;2023-12-22T13:01:39;13.57;;;2.93;;
12871;SDS011;6504;53.766;9.626;2023-12-22T13:04:09;11.97;;;3.07;;
12871;SDS011;6504;53.766;9.626;2023-12-22T13:06:45;14.70;;;3.63;;
12871;SDS011;6504;53.766;9.626;2023-12-22T13:09:13;11.10;;;2.70;;
12871;SDS011;6504;53.766;9.626;2023-12-22T13:11:42;16.47;;;3.20;;
12871;SDS011;6504;53.766;9.626;2023-12-22T13:14:12;8.77;;;2.47;;
12871;SDS011;6504;53.766;9.626;2023-12-22T13:16:50;15.17;;;3.33;;
12871;SDS011;6504;53.766;9.626;2023-12-22T13:19:21;10.47;;;2.73;;
12871;SDS011;6504;53.766;9.626;2023-12-22T13:21:51;13.83;;;3.10;;
12871;SDS011;6504;53.766;9.626;2023-12-22T13:24:20;9.53;;;2.80;;
12871;SDS011;6504;53.766;9.626;2023-12-22T13:26:58;13.77;;;3.00;;
12871;SDS011;6504;53.766;9.626;2023-12-22T13:29:27;12.40;;;3.10;;
12871;SDS011;6504;53.766;9.626;2023-12-22T13:31:55;15.37;;;3.23;;
12871;SDS011;6504;53.766;9.626;2023-12-22T13:34:25;11.87;;;3.50;;
12871;SDS011;6504;53.766;9.626;2023-12-22T13:36:53;12.27;;;2.30;;
12871;SDS011;6504;53.766;9.626;2023-12-22T13:39:25;8.50;;;2.40;;
12871;SDS011;6504;53.766;9.626;2023-12-22T13:41:55;8.20;;;2.50;;
12871;SDS011;6504;53.766;9.626;2023-12-22T13:44:24;14.27;;;2.90;;
12871;SDS011;6504;53.766;9.626;2023-12-22T13:46:52;10.67;;;3.27;;
12871;SDS011;6504;53.766;9.626;2023-12-22T13:49:20;13.97;;;3.00;;
12871;SDS011;6504;53.766;9.626;2023-12-22T13:51:50;8.83;;;2.80;;
12871;SDS011;6504;53.766;9.626;2023-12-22T13:54:18;9.70;;;3.10;;
12871;SDS011;6504;53.766;9.626;2023-12-22T13:56:46;14.97;;;2.90;;
12871;SDS011;6504;53.766;9.626;2023-12-22T13:59:15;6.37;;;2.40;;
12871;SDS011;6504;53.766;9.626;2023-12-22T14:01:45;10.10;;;2.40;;
12871;SDS011;6504;53.766;9.626;2023-12-22T14:04:13;9.27;;;2.30;;
12871;SDS011;6504;53.766;9.626;2023-12-22T14:06:42;9.60;;;2.73;;
12871;SDS011;6504;53.766;9.626;2023-12-22T14:09:11;9.57;;;2.50;;
12871;SDS011;6504;53.766;9.626;2023-12-22T14:11:39;6.83;;;2.13;;
12871;SDS011;6504;53.766;9.626;2023-12-22T14:14:22;8.50;;;2.37;;
12871;SDS011;6504;53.766;9.626;2023-12-22T14:16:50;5.10;;;1.90;;
12871;SDS011;6504;53.766;9.626;2023-12-22T14:19:18;8.20;;;2.00;;
12871;SDS011;6504;53.766;9.626;2023-12-22T14:21:46;6.00;;;2.00;;
12871;SDS011;6504;53.766;9.626;2023-12-22T14:24:16;8.00;;;3.43;;
12871;SDS011;6504;53.766;9.626;2023-12-22T14:26:53;7.97;;;2.10;;
12871;SDS011;6504;53.766;9.626;2023-12-22T14:29:22;7.67;;;2.27;;
12871;SDS011;6504;53.766;9.626;2023-12-22T14:31:50;8.17;;;2.27;;
12871;SDS011;6504;53.766;9.626;2023-12-22T14:34:19;6.83;;;2.07;;
12871;SDS011;6504;53.766;9.626;2023-12-22T14:36:47;11.00;;;2.20;;
12871;SDS011;6504;53.766;9.626;2023-12-22T14:39:16;7.83;;;1.97;;
12871;SDS011;6504;53.766;9.626;2023-12-22T14:41:44;8.70;;;2.53;;
12871;SDS011;6504;53.766;9.626;2023-12-22T14:44:12;9.43;;;2.30;;
12871;SDS011;6504;53.766;9.626;2023-12-22T14:46:41;9.30;;;2.40;;
12871;SDS011;6504;53.766;9.626;2023-12-22T14:49:09;8.53;;;2.40;;
12871;SDS011;6504;53.766;9.626;2023-12-22T14:51:37;8.63;;;2.13;;
12871;SDS011;6504;53.766;9.626;2023-12-22T14:54:06;8.33;;;2.57;;
12871;SDS011;6504;53.766;9.626;2023-12-22T14:56:37;8.43;;;2.20;;
12871;SDS011;6504;53.766;9.626;2023-12-22T14:59:07;7.77;;;2.00;;
12871;SDS011;6504;53.766;9.626;2023-12-22T15:01:36;8.37;;;2.40;;
12871;SDS011;6504;53.766;9.626;2023-12-22T15:04:05;7.03;;;3.10;;
12871;SDS011;6504;53.766;9.626;2023-12-22T15:06:33;8.27;;;2.90;;